sensor_id;sensor_type;location;lat;lon;timestamp;pressure;altitude;pressure_sealevel;temperature;humidity
7660;BME280;3872;47.902;8.162;2023-04-15T00:00:07;90935.19;;;2.52;100.00
7660;BME280;3872;47.902;8.162;2023-04-15T00:02:41;90934.19;;;2.43;100.00
7660;BME280;3872;47.902;8.162;2023-04-15T00:05:08;90933.38;;;2.52;100.00
7660;BME280;3872;47.902;8.162;2023-04-15T00:07:35;90932.50;;;2.18;100.00
7660;BME280;3872;47.902;8.162;2023-04-15T00:10:01;90928.31;;;2.76;100.00
7660;BME280;3872;47.902;8.162;2023-04-15T00:12:28;90935.25;;;2.86;100.00
7660;BME280;3872;47.902;8.162;2023-04-15T00:14:55;90930.44;;;2.69;100.00
7660;BME280;3872;47.902;8.162;2023-04-15T00:17:24;90927.84;;;2.69;100.00
7660;BME280;3872;47.902;8.162;2023-04-15T00:19:51;90930.19;;;2.65;100.00
7660;BME280;3872;47.902;8.162;2023-04-15T00:22:17;90930.34;;;2.79;100.00
7660;BME280;3872;47.902;8.162;2023-04-15T00:24:44;90922.06;;;2.77;100.00
7660;BME280;3872;47.902;8.162;2023-04-15T00:27:10;90920.22;;;2.83;100.00
7660;BME280;3872;47.902;8.162;2023-04-15T00:29:37;90919.31;;;2.58;100.00
7660;BME280;3872;47.902;8.162;2023-04-15T00:32:04;90918.56;;;2.53;100.00
7660;BME280;3872;47.902;8.162;2023-04-15T00:34:33;90915.44;;;2.51;100.00
7660;BME280;3872;47.902;8.162;2023-04-15T00:37:00;90918.44;;;2.24;100.00
7660;BME280;3872;47.902;8.162;2023-04-15T00:39:26;90907.75;;;2.35;100.00
7660;BME280;3872;47.902;8.162;2023-04-15T00:41:53;90907.72;;;2.41;100.00
7660;BME280;3872;47.902;8.162;2023-04-15T00:44:20;90906.56;;;2.13;100.00
7660;BME280;3872;47.902;8.162;2023-04-15T00:46:47;90909.28;;;2.36;100.00
7660;BME280;3872;47.902;8.162;2023-04-15T00:49:16;90906.53;;;2.67;100.00
7660;BME280;3872;47.902;8.162;2023-04-15T00:51:45;90908.06;;;2.73;100.00
7660;BME280;3872;47.902;8.162;2023-04-15T00:54:11;90904.72;;;2.67;100.00
7660;BME280;3872;47.902;8.162;2023-04-15T00:56:39;90907.19;;;2.44;100.00
7660;BME280;3872;47.902;8.162;2023-04-15T00:59:07;90909.84;;;2.33;100.00
7660;BME280;3872;47.902;8.162;2023-04-15T01:01:34;90910.41;;;2.20;100.00
7660;BME280;3872;47.902;8.162;2023-04-15T01:04:01;90916.84;;;2.28;100.00
7660;BME280;3872;47.902;8.162;2023-04-15T01:06:28;90909.78;;;1.84;100.00
7660;BME280;3872;47.902;8.162;2023-04-15T01:08:58;90915.59;;;1.26;100.00
7660;BME280;3872;47.902;8.162;2023-04-15T01:11:25;90906.47;;;1.53;100.00
7660;BME280;3872;47.902;8.162;2023-04-15T01:13:54;90909.50;;;1.91;100.00
7660;BME280;3872;47.902;8.162;2023-04-15T01:16:21;90909.22;;;2.52;100.00
7660;BME280;3872;47.902;8.162;2023-04-15T01:18:48;90916.59;;;2.29;100.00
7660;BME280;3872;47.902;8.162;2023-04-15T01:21:14;90906.81;;;2.06;100.00
7660;BME280;3872;47.902;8.162;2023-04-15T01:23:43;90901.06;;;2.24;100.00
7660;BME280;3872;47.902;8.162;2023-04-15T01:26:14;90912.47;;;2.23;100.00
7660;BME280;3872;47.902;8.162;2023-04-15T01:28:41;90909.34;;;2.26;100.00
7660;BME280;3872;47.902;8.162;2023-04-15T01:31:09;90907.75;;;2.35;100.00
7660;BME280;3872;47.902;8.162;2023-04-15T01:33:37;90909.91;;;2.18;100.00
7660;BME280;3872;47.902;8.162;2023-04-15T01:36:06;90904.22;;;2.11;100.00
7660;BME280;3872;47.902;8.162;2023-04-15T01:38:34;90895.72;;;1.95;100.00
7660;BME280;3872;47.902;8.162;2023-04-15T01:41:00;90894.44;;;1.93;100.00
7660;BME280;3872;47.902;8.162;2023-04-15T01:43:29;90884.22;;;2.17;100.00
7660;BME280;3872;47.902;8.162;2023-04-15T01:45:56;90891.63;;;1.79;100.00
7660;BME280;3872;47.902;8.162;2023-04-15T01:48:23;90893.03;;;2.16;100.00
7660;BME280;3872;47.902;8.162;2023-04-15T01:50:51;90897.09;;;2.37;100.00
7660;BME280;3872;47.902;8.162;2023-04-15T01:53:19;90900.50;;;2.32;100.00
7660;BME280;3872;47.902;8.162;2023-04-15T01:55:45;90894.72;;;2.46;100.00
7660;BME280;3872;47.902;8.162;2023-04-15T01:58:13;90892.13;;;2.46;100.00
7660;BME280;3872;47.902;8.162;2023-04-15T02:00:42;90893.75;;;2.31;100.00
7660;BME280;3872;47.902;8.162;2023-04-15T02:03:08;90899.53;;;2.18;100.00
7660;BME280;3872;47.902;8.162;2023-04-15T02:05:35;90900.53;;;2.22;100.00
7660;BME280;3872;47.902;8.162;2023-04-15T02:08:02;90884.19;;;2.22;100.00
7660;BME280;3872;47.902;8.162;2023-04-15T02:10:29;90893.06;;;2.11;100.00
7660;BME280;3872;47.902;8.162;2023-04-15T02:12:55;90890.97;;;2.18;100.00
7660;BME280;3872;47.902;8.162;2023-04-15T02:15:26;90892.69;;;2.38;100.00
7660;BME280;3872;47.902;8.162;2023-04-15T02:17:54;90889.19;;;2.62;100.00
7660;BME280;3872;47.902;8.162;2023-04-15T02:20:20;90891.78;;;2.57;100.00
7660;BME280;3872;47.902;8.162;2023-04-15T02:22:47;90894.63;;;2.61;100.00
7660;BME280;3872;47.902;8.162;2023-04-15T02:25:14;90887.56;;;2.66;100.00
7660;BME280;3872;47.902;8.162;2023-04-15T02:27:42;90889.59;;;2.74;100.00
7660;BME280;3872;47.902;8.162;2023-04-15T02:30:09;90886.31;;;2.10;100.00
7660;BME280;3872;47.902;8.162;2023-04-15T02:32:35;90883.44;;;2.16;100.00
7660;BME280;3872;47.902;8.162;2023-04-15T02:35:05;90887.56;;;2.22;100.00
7660;BME280;3872;47.902;8.162;2023-04-15T02:37:35;90886.84;;;2.12;100.00
7660;BME280;3872;47.902;8.162;2023-04-15T02:40:07;90891.00;;;2.62;100.00
7660;BME280;3872;47.902;8.162;2023-04-15T02:42:36;90885.78;;;2.18;100.00
7660;BME280;3872;47.902;8.162;2023-04-15T02:45:03;90891.13;;;1.77;100.00
7660;BME280;3872;47.902;8.162;2023-04-15T02:47:33;90890.31;;;1.87;100.00
7660;BME280;3872;47.902;8.162;2023-04-15T02:50:01;90889.69;;;2.59;100.00
7660;BME280;3872;47.902;8.162;2023-04-15T02:52:29;90883.44;;;2.99;100.00
7660;BME280;3872;47.902;8.162;2023-04-15T02:54:55;90885.97;;;2.75;100.00
7660;BME280;3872;47.902;8.162;2023-04-15T02:57:25;90887.53;;;2.77;100.00
7660;BME280;3872;47.902;8.162;2023-04-15T02:59:52;90888.78;;;2.84;100.00
7660;BME280;3872;47.902;8.162;2023-04-15T03:02:19;90880.63;;;2.96;100.00
7660;BME280;3872;47.902;8.162;2023-04-15T03:04:45;90887.91;;;2.94;100.00
7660;BME280;3872;47.902;8.162;2023-04-15T03:07:12;90892.09;;;2.90;100.00
7660;BME280;3872;47.902;8.162;2023-04-15T03:09:40;90893.97;;;3.13;100.00
7660;BME280;3872;47.902;8.162;2023-04-15T03:12:07;90889.97;;;2.97;100.00
7660;BME280;3872;47.902;8.162;2023-04-15T03:14:33;90880.50;;;2.77;100.00
7660;BME280;3872;47.902;8.162;2023-04-15T03:17:00;90879.78;;;2.66;100.00
7660;BME280;3872;47.902;8.162;2023-04-15T03:19:27;90883.56;;;2.84;100.00
7660;BME280;3872;47.902;8.162;2023-04-15T03:21:53;90886.69;;;3.15;100.00
7660;BME280;3872;47.902;8.162;2023-04-15T03:24:20;90879.16;;;3.19;100.00
7660;BME280;3872;47.902;8.162;2023-04-15T03:26:48;90882.47;;;3.24;100.00
7660;BME280;3872;47.902;8.162;2023-04-15T03:29:16;90876.09;;;3.11;100.00
7660;BME280;3872;47.902;8.162;2023-04-15T03:31:43;90871.09;;;3.15;100.00
7660;BME280;3872;47.902;8.162;2023-04-15T03:34:10;90867.09;;;3.28;100.00
7660;BME280;3872;47.902;8.162;2023-04-15T03:36:36;90870.53;;;3.23;100.00
7660;BME280;3872;47.902;8.162;2023-04-15T03:39:03;90875.84;;;2.74;100.00
7660;BME280;3872;47.902;8.162;2023-04-15T03:41:29;90869.66;;;3.04;100.00
7660;BME280;3872;47.902;8.162;2023-04-15T03:43:58;90873.06;;;3.28;100.00
7660;BME280;3872;47.902;8.162;2023-04-15T03:46:25;90875.31;;;3.64;100.00
7660;BME280;3872;47.902;8.162;2023-04-15T03:48:52;90875.00;;;3.46;100.00
7660;BME280;3872;47.902;8.162;2023-04-15T03:51:18;90866.22;;;3.37;100.00
7660;BME280;3872;47.902;8.162;2023-04-15T03:53:45;90868.44;;;3.25;100.00
7660;BME280;3872;47.902;8.162;2023-04-15T03:56:11;90862.63;;;3.33;100.00
7660;BME280;3872;47.902;8.162;2023-04-15T03:58:38;90860.31;;;3.55;100.00
7660;BME280;3872;47.902;8.162;2023-04-15T04:01:06;90859.44;;;3.65;100.00
7660;BME280;3872;47.902;8.162;2023-04-15T04:03:32;90864.81;;;3.50;100.00
7660;BME280;3872;47.902;8.162;2023-04-15T04:05:59;90863.16;;;3.59;100.00
7660;BME280;3872;47.902;8.162;2023-04-15T04:08:25;90869.19;;;3.78;100.00
7660;BME280;3872;47.902;8.162;2023-04-15T04:10:52;90871.44;;;3.37;100.00
7660;BME280;3872;47.902;8.162;2023-04-15T04:13:18;90868.75;;;3.19;100.00
7660;BME280;3872;47.902;8.162;2023-04-15T04:15:45;90866.28;;;3.32;100.00
7660;BME280;3872;47.902;8.162;2023-04-15T04:18:13;90869.00;;;3.46;100.00
7660;BME280;3872;47.902;8.162;2023-04-15T04:20:40;90878.38;;;3.18;100.00
7660;BME280;3872;47.902;8.162;2023-04-15T04:23:06;90874.97;;;3.75;100.00
7660;BME280;3872;47.902;8.162;2023-04-15T04:25:33;90877.63;;;3.41;100.00
7660;BME280;3872;47.902;8.162;2023-04-15T04:27:59;90873.75;;;3.10;100.00
7660;BME280;3872;47.902;8.162;2023-04-15T04:30:26;90871.03;;;3.78;100.00
7660;BME280;3872;47.902;8.162;2023-04-15T04:32:52;90871.47;;;3.61;100.00
7660;BME280;3872;47.902;8.162;2023-04-15T04:35:20;90879.44;;;2.78;100.00
7660;BME280;3872;47.902;8.162;2023-04-15T04:37:47;90882.50;;;2.90;100.00
7660;BME280;3872;47.902;8.162;2023-04-15T04:40:14;90882.97;;;3.55;100.00
7660;BME280;3872;47.902;8.162;2023-04-15T04:42:40;90882.38;;;4.11;100.00
7660;BME280;3872;47.902;8.162;2023-04-15T04:45:08;90879.09;;;4.24;100.00
7660;BME280;3872;47.902;8.162;2023-04-15T04:47:35;90875.53;;;3.96;100.00
7660;BME280;3872;47.902;8.162;2023-04-15T04:50:01;90886.19;;;4.18;100.00
7660;BME280;3872;47.902;8.162;2023-04-15T04:52:29;90883.94;;;3.88;100.00
7660;BME280;3872;47.902;8.162;2023-04-15T04:54:55;90887.38;;;3.83;100.00
7660;BME280;3872;47.902;8.162;2023-04-15T04:57:22;90885.53;;;3.60;100.00
7660;BME280;3872;47.902;8.162;2023-04-15T04:59:48;90891.13;;;3.96;100.00
7660;BME280;3872;47.902;8.162;2023-04-15T05:02:15;90887.28;;;4.12;100.00
7660;BME280;3872;47.902;8.162;2023-04-15T05:04:41;90890.09;;;3.97;100.00
7660;BME280;3872;47.902;8.162;2023-04-15T05:07:08;90888.03;;;3.94;100.00
7660;BME280;3872;47.902;8.162;2023-04-15T05:09:36;90895.72;;;3.80;100.00
7660;BME280;3872;47.902;8.162;2023-04-15T05:12:02;90893.97;;;3.76;100.00
7660;BME280;3872;47.902;8.162;2023-04-15T05:14:29;90890.97;;;3.87;100.00
7660;BME280;3872;47.902;8.162;2023-04-15T05:16:56;90895.72;;;3.80;100.00
7660;BME280;3872;47.902;8.162;2023-04-15T05:19:22;90894.53;;;4.39;100.00
7660;BME280;3872;47.902;8.162;2023-04-15T05:21:49;90887.66;;;4.67;100.00
7660;BME280;3872;47.902;8.162;2023-04-15T05:24:15;90893.28;;;4.74;100.00
7660;BME280;3872;47.902;8.162;2023-04-15T05:26:43;90898.34;;;4.84;100.00
7660;BME280;3872;47.902;8.162;2023-04-15T05:29:10;90893.56;;;4.72;100.00
7660;BME280;3872;47.902;8.162;2023-04-15T05:31:37;90896.94;;;4.73;100.00
7660;BME280;3872;47.902;8.162;2023-04-15T05:34:03;90903.34;;;4.43;100.00
7660;BME280;3872;47.902;8.162;2023-04-15T05:36:31;90899.63;;;4.68;100.00
7660;BME280;3872;47.902;8.162;2023-04-15T05:38:57;90896.47;;;4.90;100.00
7660;BME280;3872;47.902;8.162;2023-04-15T05:41:24;90900.19;;;5.02;100.00
7660;BME280;3872;47.902;8.162;2023-04-15T05:43:52;90899.53;;;5.10;100.00
7660;BME280;3872;47.902;8.162;2023-04-15T05:46:19;90895.59;;;5.13;100.00
7660;BME280;3872;47.902;8.162;2023-04-15T05:48:45;90901.25;;;5.34;100.00
7660;BME280;3872;47.902;8.162;2023-04-15T05:51:12;90894.50;;;5.33;100.00
7660;BME280;3872;47.902;8.162;2023-04-15T05:53:38;90902.13;;;5.29;100.00
7660;BME280;3872;47.902;8.162;2023-04-15T05:56:06;90899.47;;;5.16;100.00
7660;BME280;3872;47.902;8.162;2023-04-15T05:58:32;90898.69;;;5.15;100.00
7660;BME280;3872;47.902;8.162;2023-04-15T06:01:01;90891.22;;;5.41;100.00
7660;BME280;3872;47.902;8.162;2023-04-15T06:03:28;90896.53;;;5.03;100.00
7660;BME280;3872;47.902;8.162;2023-04-15T06:05:54;90893.28;;;5.44;100.00
7660;BME280;3872;47.902;8.162;2023-04-15T06:08:21;90891.09;;;5.00;100.00
7660;BME280;3872;47.902;8.162;2023-04-15T06:10:47;90897.41;;;5.12;100.00
7660;BME280;3872;47.902;8.162;2023-04-15T06:13:14;90891.38;;;5.17;100.00
7660;BME280;3872;47.902;8.162;2023-04-15T06:15:41;90898.06;;;5.04;100.00
7660;BME280;3872;47.902;8.162;2023-04-15T06:18:09;90892.44;;;5.62;100.00
7660;BME280;3872;47.902;8.162;2023-04-15T06:20:35;90896.13;;;5.29;100.00
7660;BME280;3872;47.902;8.162;2023-04-15T06:23:02;90899.41;;;5.53;100.00
7660;BME280;3872;47.902;8.162;2023-04-15T06:25:29;90891.28;;;6.01;100.00
7660;BME280;3872;47.902;8.162;2023-04-15T06:27:55;90889.94;;;6.17;100.00
7660;BME280;3872;47.902;8.162;2023-04-15T06:30:22;90883.25;;;6.38;100.00
7660;BME280;3872;47.902;8.162;2023-04-15T06:32:48;90874.63;;;6.51;100.00
7660;BME280;3872;47.902;8.162;2023-04-15T06:35:16;90873.50;;;6.80;100.00
7660;BME280;3872;47.902;8.162;2023-04-15T06:37:43;90873.94;;;6.95;100.00
7660;BME280;3872;47.902;8.162;2023-04-15T06:40:10;90876.03;;;7.07;100.00
7660;BME280;3872;47.902;8.162;2023-04-15T06:42:36;90872.44;;;7.47;97.67
7660;BME280;3872;47.902;8.162;2023-04-15T06:45:04;90872.22;;;7.35;96.84
7660;BME280;3872;47.902;8.162;2023-04-15T06:47:31;90869.72;;;7.83;92.25
7660;BME280;3872;47.902;8.162;2023-04-15T06:49:57;90868.41;;;7.95;90.23
7660;BME280;3872;47.902;8.162;2023-04-15T06:52:25;90873.91;;;7.84;96.44
7660;BME280;3872;47.902;8.162;2023-04-15T06:54:51;90872.13;;;8.33;92.98
7660;BME280;3872;47.902;8.162;2023-04-15T06:57:18;90881.56;;;8.12;97.48
7660;BME280;3872;47.902;8.162;2023-04-15T06:59:44;90877.16;;;7.59;100.00
7660;BME280;3872;47.902;8.162;2023-04-15T07:02:12;90873.81;;;7.98;93.71
7660;BME280;3872;47.902;8.162;2023-04-15T07:04:38;90869.56;;;7.80;97.52
7660;BME280;3872;47.902;8.162;2023-04-15T07:07:05;90874.91;;;8.06;96.15
7660;BME280;3872;47.902;8.162;2023-04-15T07:09:33;90872.72;;;8.30;88.94
7660;BME280;3872;47.902;8.162;2023-04-15T07:12:00;90869.69;;;8.54;84.79
7660;BME280;3872;47.902;8.162;2023-04-15T07:14:27;90868.50;;;8.20;84.67
7660;BME280;3872;47.902;8.162;2023-04-15T07:16:53;90870.13;;;8.39;85.87
7660;BME280;3872;47.902;8.162;2023-04-15T07:19:20;90865.91;;;8.77;80.77
7660;BME280;3872;47.902;8.162;2023-04-15T07:21:47;90873.84;;;8.46;83.10
7660;BME280;3872;47.902;8.162;2023-04-15T07:24:14;90861.94;;;8.32;87.04
7660;BME280;3872;47.902;8.162;2023-04-15T07:26:43;90864.66;;;8.75;82.50
7660;BME280;3872;47.902;8.162;2023-04-15T07:29:10;90855.06;;;8.61;78.60
7660;BME280;3872;47.902;8.162;2023-04-15T07:31:36;90865.72;;;8.56;80.84
7660;BME280;3872;47.902;8.162;2023-04-15T07:34:03;90857.72;;;8.79;78.85
7660;BME280;3872;47.902;8.162;2023-04-15T07:36:29;90860.81;;;8.81;79.63
7660;BME280;3872;47.902;8.162;2023-04-15T07:38:56;90856.97;;;8.95;75.35
7660;BME280;3872;47.902;8.162;2023-04-15T07:41:22;90854.63;;;9.46;76.06
7660;BME280;3872;47.902;8.162;2023-04-15T07:43:51;90853.22;;;9.65;72.32
7660;BME280;3872;47.902;8.162;2023-04-15T07:46:17;90856.78;;;9.52;76.43
7660;BME280;3872;47.902;8.162;2023-04-15T07:48:44;90854.06;;;9.95;77.30
7660;BME280;3872;47.902;8.162;2023-04-15T07:51:11;90849.06;;;10.11;74.18
7660;BME280;3872;47.902;8.162;2023-04-15T07:53:38;90853.41;;;10.07;75.69
7660;BME280;3872;47.902;8.162;2023-04-15T07:56:05;90846.31;;;10.45;72.71
7660;BME280;3872;47.902;8.162;2023-04-15T07:58:31;90845.53;;;10.74;66.74
7660;BME280;3872;47.902;8.162;2023-04-15T08:00:59;90853.31;;;10.71;66.83
7660;BME280;3872;47.902;8.162;2023-04-15T08:03:26;90845.56;;;10.95;67.98
7660;BME280;3872;47.902;8.162;2023-04-15T08:05:53;90860.47;;;10.91;67.17
7660;BME280;3872;47.902;8.162;2023-04-15T08:08:19;90856.78;;;10.25;77.13
7660;BME280;3872;47.902;8.162;2023-04-15T08:10:46;90853.72;;;10.05;80.68
7660;BME280;3872;47.902;8.162;2023-04-15T08:13:13;90858.69;;;10.45;74.76
7660;BME280;3872;47.902;8.162;2023-04-15T08:15:39;90866.94;;;10.73;70.84
7660;BME280;3872;47.902;8.162;2023-04-15T08:18:07;90859.84;;;10.94;69.61
7660;BME280;3872;47.902;8.162;2023-04-15T08:20:34;90861.69;;;11.35;62.67
7660;BME280;3872;47.902;8.162;2023-04-15T08:23:01;90854.69;;;11.93;60.44
7660;BME280;3872;47.902;8.162;2023-04-15T08:25:28;90859.66;;;9.94;65.61
7660;BME280;3872;47.902;8.162;2023-04-15T08:27:55;90857.25;;;10.18;58.54
7660;BME280;3872;47.902;8.162;2023-04-15T08:30:22;90862.56;;;11.60;55.37
7660;BME280;3872;47.902;8.162;2023-04-15T08:32:49;90861.47;;;11.61;52.44
7660;BME280;3872;47.902;8.162;2023-04-15T08:35:17;90861.41;;;11.69;54.74
7660;BME280;3872;47.902;8.162;2023-04-15T08:37:43;90865.19;;;11.60;50.73
7660;BME280;3872;47.902;8.162;2023-04-15T08:40:10;90869.91;;;10.92;49.53
7660;BME280;3872;47.902;8.162;2023-04-15T08:42:43;90872.09;;;10.14;52.66
7660;BME280;3872;47.902;8.162;2023-04-15T08:45:13;90868.63;;;11.19;51.36
7660;BME280;3872;47.902;8.162;2023-04-15T08:47:41;90871.78;;;12.20;47.38
7660;BME280;3872;47.902;8.162;2023-04-15T08:50:09;90868.41;;;11.86;43.63
7660;BME280;3872;47.902;8.162;2023-04-15T08:52:37;90876.50;;;11.81;43.98
7660;BME280;3872;47.902;8.162;2023-04-15T08:55:07;90872.31;;;12.25;43.59
7660;BME280;3872;47.902;8.162;2023-04-15T08:57:35;90868.88;;;12.00;44.00
7660;BME280;3872;47.902;8.162;2023-04-15T09:00:03;90873.31;;;12.21;42.34
7660;BME280;3872;47.902;8.162;2023-04-15T09:02:30;90875.66;;;12.83;42.69
7660;BME280;3872;47.902;8.162;2023-04-15T09:04:56;90876.88;;;12.98;41.13
7660;BME280;3872;47.902;8.162;2023-04-15T09:07:23;90874.56;;;12.02;41.78
7660;BME280;3872;47.902;8.162;2023-04-15T09:09:51;90880.81;;;12.79;41.42
7660;BME280;3872;47.902;8.162;2023-04-15T09:12:18;90884.78;;;13.34;42.18
7660;BME280;3872;47.902;8.162;2023-04-15T09:14:45;90875.31;;;13.61;41.41
7660;BME280;3872;47.902;8.162;2023-04-15T09:17:12;90886.88;;;12.92;42.61
7660;BME280;3872;47.902;8.162;2023-04-15T09:19:38;90887.84;;;12.87;40.84
7660;BME280;3872;47.902;8.162;2023-04-15T09:22:05;90884.03;;;13.61;42.29
7660;BME280;3872;47.902;8.162;2023-04-15T09:24:36;90879.59;;;12.52;43.24
7660;BME280;3872;47.902;8.162;2023-04-15T09:27:05;90894.56;;;12.61;43.16
7660;BME280;3872;47.902;8.162;2023-04-15T09:29:32;90893.03;;;12.47;44.12
7660;BME280;3872;47.902;8.162;2023-04-15T09:32:08;90900.66;;;12.16;43.54
7660;BME280;3872;47.902;8.162;2023-04-15T09:34:35;90902.28;;;13.02;42.24
7660;BME280;3872;47.902;8.162;2023-04-15T09:37:02;90908.00;;;13.28;41.20
7660;BME280;3872;47.902;8.162;2023-04-15T09:39:44;90910.41;;;12.97;41.63
7660;BME280;3872;47.902;8.162;2023-04-15T09:42:12;90906.66;;;12.49;40.03
7660;BME280;3872;47.902;8.162;2023-04-15T09:44:39;90908.53;;;12.61;40.01
7660;BME280;3872;47.902;8.162;2023-04-15T09:47:05;90912.50;;;12.10;43.39
7660;BME280;3872;47.902;8.162;2023-04-15T09:49:32;90915.63;;;12.24;45.46
7660;BME280;3872;47.902;8.162;2023-04-15T09:51:59;90914.69;;;12.65;44.35
7660;BME280;3872;47.902;8.162;2023-04-15T09:54:32;90920.25;;;12.27;42.96
7660;BME280;3872;47.902;8.162;2023-04-15T09:57:04;90918.50;;;12.31;45.20
7660;BME280;3872;47.902;8.162;2023-04-15T09:59:32;90930.97;;;12.10;43.83
7660;BME280;3872;47.902;8.162;2023-04-15T10:02:01;90926.63;;;13.20;41.16
7660;BME280;3872;47.902;8.162;2023-04-15T10:04:32;90921.53;;;13.39;39.02
7660;BME280;3872;47.902;8.162;2023-04-15T10:07:02;90925.16;;;13.47;40.90
7660;BME280;3872;47.902;8.162;2023-04-15T10:09:29;90928.03;;;13.05;40.60
7660;BME280;3872;47.902;8.162;2023-04-15T10:11:56;90929.66;;;13.46;40.71
7660;BME280;3872;47.902;8.162;2023-04-15T10:14:23;90929.13;;;13.41;38.34
7660;BME280;3872;47.902;8.162;2023-04-15T10:16:55;90927.53;;;13.52;40.48
7660;BME280;3872;47.902;8.162;2023-04-15T10:19:25;90926.34;;;13.37;39.91
7660;BME280;3872;47.902;8.162;2023-04-15T10:21:53;90921.13;;;14.05;39.27
7660;BME280;3872;47.902;8.162;2023-04-15T10:24:21;90928.59;;;14.31;38.79
7660;BME280;3872;47.902;8.162;2023-04-15T10:26:50;90925.34;;;14.97;34.64
7660;BME280;3872;47.902;8.162;2023-04-15T10:29:17;90926.41;;;13.77;38.49
7660;BME280;3872;47.902;8.162;2023-04-15T10:31:43;90931.88;;;14.12;38.58
7660;BME280;3872;47.902;8.162;2023-04-15T10:34:12;90933.44;;;13.85;36.96
7660;BME280;3872;47.902;8.162;2023-04-15T10:36:40;90939.88;;;12.63;40.21
7660;BME280;3872;47.902;8.162;2023-04-15T10:39:38;90933.88;;;14.74;35.20
7660;BME280;3872;47.902;8.162;2023-04-15T10:42:05;90932.00;;;14.59;36.95
7660;BME280;3872;47.902;8.162;2023-04-15T10:44:32;90929.72;;;14.02;35.51
7660;BME280;3872;47.902;8.162;2023-04-15T10:46:59;90929.19;;;14.99;35.16
7660;BME280;3872;47.902;8.162;2023-04-15T10:49:27;90933.16;;;15.40;34.50
7660;BME280;3872;47.902;8.162;2023-04-15T10:51:57;90942.88;;;14.14;38.90
7660;BME280;3872;47.902;8.162;2023-04-15T10:54:30;90945.69;;;14.77;38.80
7660;BME280;3872;47.902;8.162;2023-04-15T10:57:06;90936.34;;;14.67;35.38
7660;BME280;3872;47.902;8.162;2023-04-15T10:59:36;90941.03;;;14.58;36.74
7660;BME280;3872;47.902;8.162;2023-04-15T11:02:04;90943.44;;;13.40;36.63
7660;BME280;3872;47.902;8.162;2023-04-15T11:04:52;90945.09;;;13.84;36.45
7660;BME280;3872;47.902;8.162;2023-04-15T11:07:40;90941.31;;;15.16;35.81
7660;BME280;3872;47.902;8.162;2023-04-15T11:13:24;90946.19;;;15.14;31.88
7660;BME280;3872;47.902;8.162;2023-04-15T11:15:58;90950.25;;;15.43;33.31
7660;BME280;3872;47.902;8.162;2023-04-15T11:18:32;90960.00;;;13.77;33.23
7660;BME280;3872;47.902;8.162;2023-04-15T11:21:03;90960.41;;;15.06;34.61
7660;BME280;3872;47.902;8.162;2023-04-15T11:23:32;90964.88;;;14.30;37.65
7660;BME280;3872;47.902;8.162;2023-04-15T11:26:00;90963.72;;;15.18;35.31
7660;BME280;3872;47.902;8.162;2023-04-15T11:28:30;90969.38;;;14.58;36.02
7660;BME280;3872;47.902;8.162;2023-04-15T11:31:02;90972.88;;;14.18;37.77
7660;BME280;3872;47.902;8.162;2023-04-15T11:33:30;90968.88;;;14.52;37.81
7660;BME280;3872;47.902;8.162;2023-04-15T11:35:57;90967.91;;;15.19;35.15
7660;BME280;3872;47.902;8.162;2023-04-15T11:38:25;90972.16;;;15.40;34.60
7660;BME280;3872;47.902;8.162;2023-04-15T11:40:52;90979.44;;;15.78;33.82
7660;BME280;3872;47.902;8.162;2023-04-15T11:43:20;90978.78;;;15.49;34.45
7660;BME280;3872;47.902;8.162;2023-04-15T11:45:49;90989.34;;;14.83;36.29
7660;BME280;3872;47.902;8.162;2023-04-15T11:48:17;90984.72;;;14.80;44.20
7660;BME280;3872;47.902;8.162;2023-04-15T11:50:44;90990.13;;;14.83;45.83
7660;BME280;3872;47.902;8.162;2023-04-15T11:53:12;90992.94;;;14.91;41.87
7660;BME280;3872;47.902;8.162;2023-04-15T11:55:45;91002.22;;;14.69;49.17
7660;BME280;3872;47.902;8.162;2023-04-15T11:58:13;91016.81;;;11.57;70.74
7660;BME280;3872;47.902;8.162;2023-04-15T12:00:44;91018.75;;;12.10;67.99
7660;BME280;3872;47.902;8.162;2023-04-15T12:03:23;91020.41;;;12.15;69.17
7660;BME280;3872;47.902;8.162;2023-04-15T12:06:13;91028.78;;;12.17;65.72
7660;BME280;3872;47.902;8.162;2023-04-15T12:09:07;91029.84;;;11.83;74.68
7660;BME280;3872;47.902;8.162;2023-04-15T12:11:37;91036.28;;;10.59;90.38
7660;BME280;3872;47.902;8.162;2023-04-15T12:14:10;91037.03;;;11.15;84.83
7660;BME280;3872;47.902;8.162;2023-04-15T12:16:40;91040.34;;;11.62;81.13
7660;BME280;3872;47.902;8.162;2023-04-15T12:19:09;91041.56;;;10.97;88.28
7660;BME280;3872;47.902;8.162;2023-04-15T12:21:38;91055.81;;;10.50;97.19
7660;BME280;3872;47.902;8.162;2023-04-15T12:24:06;91051.91;;;11.11;93.31
7660;BME280;3872;47.902;8.162;2023-04-15T12:26:36;91056.00;;;11.88;83.56
7660;BME280;3872;47.902;8.162;2023-04-15T12:29:05;91060.41;;;11.46;89.02
7660;BME280;3872;47.902;8.162;2023-04-15T12:31:33;91069.66;;;11.23;93.49
7660;BME280;3872;47.902;8.162;2023-04-15T12:34:00;91066.28;;;11.81;87.63
7660;BME280;3872;47.902;8.162;2023-04-15T12:36:27;91072.28;;;12.11;85.50
7660;BME280;3872;47.902;8.162;2023-04-15T12:38:56;91071.47;;;12.52;79.86
7660;BME280;3872;47.902;8.162;2023-04-15T12:41:23;91064.34;;;12.85;77.74
7660;BME280;3872;47.902;8.162;2023-04-15T12:43:50;91068.47;;;12.74;76.34
7660;BME280;3872;47.902;8.162;2023-04-15T12:46:17;91081.22;;;12.19;79.76
7660;BME280;3872;47.902;8.162;2023-04-15T12:48:44;91076.47;;;12.33;77.41
7660;BME280;3872;47.902;8.162;2023-04-15T12:51:11;91080.72;;;12.04;77.23
7660;BME280;3872;47.902;8.162;2023-04-15T12:53:37;91080.31;;;11.94;81.05
7660;BME280;3872;47.902;8.162;2023-04-15T12:56:04;91079.41;;;12.10;77.08
7660;BME280;3872;47.902;8.162;2023-04-15T12:58:31;91097.38;;;11.58;80.58
7660;BME280;3872;47.902;8.162;2023-04-15T13:00:58;91100.28;;;10.89;90.48
7660;BME280;3872;47.902;8.162;2023-04-15T13:03:25;91102.69;;;11.20;89.28
7660;BME280;3872;47.902;8.162;2023-04-15T13:05:51;91105.00;;;12.51;77.40
7660;BME280;3872;47.902;8.162;2023-04-15T13:08:18;91110.75;;;12.53;79.14
7660;BME280;3872;47.902;8.162;2023-04-15T13:10:44;91116.03;;;12.86;75.70
7660;BME280;3872;47.902;8.162;2023-04-15T13:13:11;91118.47;;;12.91;74.39
7660;BME280;3872;47.902;8.162;2023-04-15T13:15:40;91128.59;;;12.89;74.58
7660;BME280;3872;47.902;8.162;2023-04-15T13:18:11;91146.78;;;11.79;85.27
7660;BME280;3872;47.902;8.162;2023-04-15T13:20:37;91151.34;;;11.06;91.43
7660;BME280;3872;47.902;8.162;2023-04-15T13:23:04;91161.13;;;11.90;84.46
7660;BME280;3872;47.902;8.162;2023-04-15T13:25:31;91161.59;;;11.92;88.90
7660;BME280;3872;47.902;8.162;2023-04-15T13:27:57;91172.66;;;11.30;97.39